sensor_id;sensor_type;location;lat;lon;timestamp;pressure;altitude;pressure_sealevel;temperature;humidity
63622;BME280;49770;47.544;19.074;2023-02-03T05:29:30;100978.12;;;-0.23;95.63
63622;BME280;49770;47.544;19.074;2023-02-03T05:32:33;100982.44;;;-0.25;96.64
63622;BME280;49770;47.544;19.074;2023-02-03T05:35:36;100977.25;;;-0.17;94.61
63622;BME280;49770;47.544;19.074;2023-02-03T05:38:38;100972.03;;;-0.22;95.23
63622;BME280;49770;47.544;19.074;2023-02-03T05:41:43;100978.97;;;-0.21;95.68
63622;BME280;49770;47.544;19.074;2023-02-03T05:44:55;100985.94;;;-0.18;95.75
63622;BME280;49770;47.544;19.074;2023-02-03T05:47:57;100984.25;;;-0.04;93.94
63622;BME280;49770;47.544;19.074;2023-02-03T05:51:00;100987.75;;;0.02;93.02
63622;BME280;49770;47.544;19.074;2023-02-03T05:54:04;100990.44;;;0.20;92.52
63622;BME280;49770;47.544;19.074;2023-02-03T05:57:07;100999.03;;;-0.06;94.42
63622;BME280;49770;47.544;19.074;2023-02-03T06:00:10;101005.16;;;-0.01;94.00
63622;BME280;49770;47.544;19.074;2023-02-03T06:03:13;101009.50;;;-0.03;95.39
63622;BME280;49770;47.544;19.074;2023-02-03T06:06:16;100999.06;;;-0.01;95.61
63622;BME280;49770;47.544;19.074;2023-02-03T06:09:19;100987.78;;;-0.02;97.04
63622;BME280;49770;47.544;19.074;2023-02-03T06:12:22;100984.31;;;0.01;96.11
63622;BME280;49770;47.544;19.074;2023-02-03T06:15:24;100991.25;;;0.05;96.51
63622;BME280;49770;47.544;19.074;2023-02-03T06:18:29;100984.31;;;0.09;97.80
63622;BME280;49770;47.544;19.074;2023-02-03T06:21:31;100986.06;;;0.08;99.24
63622;BME280;49770;47.544;19.074;2023-02-03T06:24:34;100993.00;;;0.03;100.00
63622;BME280;49770;47.544;19.074;2023-02-03T06:27:37;100991.25;;;0.01;100.00
63622;BME280;49770;47.544;19.074;2023-02-03T06:30:40;100993.88;;;0.05;100.00
63622;BME280;49770;47.544;19.074;2023-02-03T06:33:43;100996.50;;;0.04;100.00
63622;BME280;49770;47.544;19.074;2023-02-03T06:36:46;100990.41;;;0.14;100.00
63622;BME280;49770;47.544;19.074;2023-02-03T06:39:49;100996.50;;;0.04;100.00
63622;BME280;49770;47.544;19.074;2023-02-03T06:42:52;100989.50;;;0.04;99.89
63622;BME280;49770;47.544;19.074;2023-02-03T06:45:55;101007.78;;;0.09;99.78
63622;BME280;49770;47.544;19.074;2023-02-03T06:48:58;101014.78;;;0.10;99.51
63622;BME280;49770;47.544;19.074;2023-02-03T06:52:01;101007.84;;;0.23;98.75
63622;BME280;49770;47.544;19.074;2023-02-03T06:55:05;101011.31;;;0.16;96.43
63622;BME280;49770;47.544;19.074;2023-02-03T06:58:08;101010.50;;;0.35;97.17
63622;BME280;49770;47.544;19.074;2023-02-03T07:01:11;101007.91;;;0.52;93.74
63622;BME280;49770;47.544;19.074;2023-02-03T07:04:14;101011.41;;;0.48;94.71
63622;BME280;49770;47.544;19.074;2023-02-03T07:07:17;101002.66;;;0.40;94.84
63622;BME280;49770;47.544;19.074;2023-02-03T07:10:19;101012.28;;;0.47;91.42
63622;BME280;49770;47.544;19.074;2023-02-03T07:13:22;101009.66;;;0.47;91.50
63622;BME280;49770;47.544;19.074;2023-02-03T07:16:25;101000.06;;;0.52;90.95
63622;BME280;49770;47.544;19.074;2023-02-03T07:19:29;101000.97;;;0.59;89.12
63622;BME280;49770;47.544;19.074;2023-02-03T07:22:31;101001.81;;;0.55;90.19
63622;BME280;49770;47.544;19.074;2023-02-03T07:25:34;100996.63;;;0.58;90.29
63622;BME280;49770;47.544;19.074;2023-02-03T07:28:41;100999.25;;;0.58;89.07
63622;BME280;49770;47.544;19.074;2023-02-03T07:31:44;101005.38;;;0.71;88.26
63622;BME280;49770;47.544;19.074;2023-02-03T07:34:47;101001.00;;;0.75;88.02
63622;BME280;49770;47.544;19.074;2023-02-03T07:37:50;100995.78;;;0.67;85.84
63622;BME280;49770;47.544;19.074;2023-02-03T07:40:53;101013.22;;;0.77;84.34
63622;BME280;49770;47.544;19.074;2023-02-03T07:43:56;101008.84;;;0.81;82.70
63622;BME280;49770;47.544;19.074;2023-02-03T07:47:03;101012.31;;;1.13;81.65
63622;BME280;49770;47.544;19.074;2023-02-03T07:50:06;101020.19;;;1.08;82.56
63622;BME280;49770;47.544;19.074;2023-02-03T07:53:09;101021.03;;;1.04;82.67
63622;BME280;49770;47.544;19.074;2023-02-03T07:56:15;101015.81;;;0.98;80.53
63622;BME280;49770;47.544;19.074;2023-02-03T07:59:18;101022.78;;;1.02;82.20
63622;BME280;49770;47.544;19.074;2023-02-03T08:02:21;101021.94;;;1.18;81.77
63622;BME280;49770;47.544;19.074;2023-02-03T08:05:24;101016.66;;;1.32;81.11
63622;BME280;49770;47.544;19.074;2023-02-03T08:08:26;101021.03;;;1.29;80.58
63622;BME280;49770;47.544;19.074;2023-02-03T08:11:30;101021.91;;;1.15;82.35
63622;BME280;49770;47.544;19.074;2023-02-03T08:14:33;101016.69;;;1.25;81.07
63622;BME280;49770;47.544;19.074;2023-02-03T08:17:36;101021.91;;;1.31;81.35
63622;BME280;49770;47.544;19.074;2023-02-03T08:20:41;101028.88;;;1.26;82.13
63622;BME280;49770;47.544;19.074;2023-02-03T08:23:44;101023.66;;;1.21;80.84
63622;BME280;49770;47.544;19.074;2023-02-03T08:26:47;101021.91;;;1.23;81.77
63622;BME280;49770;47.544;19.074;2023-02-03T08:29:50;101024.50;;;1.42;81.21
63622;BME280;49770;47.544;19.074;2023-02-03T08:32:52;101023.66;;;1.27;82.04
63622;BME280;49770;47.544;19.074;2023-02-03T08:35:57;101022.78;;;1.11;83.71
63622;BME280;49770;47.544;19.074;2023-02-03T08:39:01;101028.00;;;1.19;82.81
63622;BME280;49770;47.544;19.074;2023-02-03T08:42:04;101031.47;;;1.41;81.57
63622;BME280;49770;47.544;19.074;2023-02-03T08:45:08;101032.34;;;1.42;82.36
63622;BME280;49770;47.544;19.074;2023-02-03T08:48:11;101034.94;;;1.45;81.10
63622;BME280;49770;47.544;19.074;2023-02-03T08:51:15;101033.16;;;1.75;78.48
63622;BME280;49770;47.544;19.074;2023-02-03T08:54:18;101026.16;;;1.80;78.88
63622;BME280;49770;47.544;19.074;2023-02-03T08:57:21;101040.19;;;1.53;79.86
63622;BME280;49770;47.544;19.074;2023-02-03T09:00:25;101039.31;;;1.54;81.55
63622;BME280;49770;47.544;19.074;2023-02-03T09:03:28;101034.94;;;1.53;83.36
63622;BME280;49770;47.544;19.074;2023-02-03T09:06:31;101041.00;;;1.84;90.67
63622;BME280;49770;47.544;19.074;2023-02-03T09:09:34;101035.38;;;2.70;81.31
63622;BME280;49770;47.544;19.074;2023-02-03T09:12:37;101034.63;;;2.48;82.86
63622;BME280;49770;47.544;19.074;2023-02-03T09:15:40;101035.66;;;2.15;86.72
63622;BME280;49770;47.544;19.074;2023-02-03T09:18:46;101033.00;;;2.23;89.92
63622;BME280;49770;47.544;19.074;2023-02-03T09:21:50;101027.81;;;2.17;91.79
63622;BME280;49770;47.544;19.074;2023-02-03T09:24:53;101025.28;;;1.92;100.00
63622;BME280;49770;47.544;19.074;2023-02-03T09:27:56;101034.91;;;1.64;100.00
63622;BME280;49770;47.544;19.074;2023-02-03T09:31:25;101027.16;;;1.25;100.00
63622;BME280;49770;47.544;19.074;2023-02-03T09:34:28;101030.63;;;0.91;100.00
63622;BME280;49770;47.544;19.074;2023-02-03T09:37:31;101024.50;;;0.73;100.00
63622;BME280;49770;47.544;19.074;2023-02-03T09:40:35;101021.81;;;0.40;100.00
63622;BME280;49770;47.544;19.074;2023-02-03T09:47:16;101005.25;;;0.24;100.00
63622;BME280;49770;47.544;19.074;2023-02-03T09:50:23;100993.06;;;0.23;100.00
63622;BME280;49770;47.544;19.074;2023-02-03T09:53:34;100986.09;;;0.25;100.00
63622;BME280;49770;47.544;19.074;2023-02-03T09:56:39;100982.66;;;0.30;100.00
63622;BME280;49770;47.544;19.074;2023-02-03T09:59:42;100979.19;;;0.42;100.00
63622;BME280;49770;47.544;19.074;2023-02-03T10:03:09;100966.13;;;0.37;100.00
63622;BME280;49770;47.544;19.074;2023-02-03T10:22:55;100927.00;;;0.90;100.00
63622;BME280;49770;47.544;19.074;2023-02-03T10:26:06;100905.22;;;0.75;100.00
63622;BME280;49770;47.544;19.074;2023-02-03T10:29:25;100893.03;;;0.54;100.00
63622;BME280;49770;47.544;19.074;2023-02-03T10:32:34;100884.34;;;0.21;100.00
63622;BME280;49770;47.544;19.074;2023-02-03T10:36:01;100877.37;;;0.20;100.00
63622;BME280;49770;47.544;19.074;2023-02-03T10:39:28;100882.59;;;0.35;100.00
63622;BME280;49770;47.544;19.074;2023-02-03T10:42:33;100872.16;;;0.46;100.00
63622;BME280;49770;47.544;19.074;2023-02-03T10:45:59;100864.31;;;0.66;100.00
63622;BME280;49770;47.544;19.074;2023-02-03T10:49:02;100853.03;;;0.60;100.00
63622;BME280;49770;47.544;19.074;2023-02-03T10:52:06;100841.66;;;0.86;100.00
63622;BME280;49770;47.544;19.074;2023-02-03T10:58:28;100832.94;;;0.99;100.00
63622;BME280;49770;47.544;19.074;2023-02-03T11:01:41;100826.81;;;1.00;100.00
63622;BME280;49770;47.544;19.074;2023-02-03T11:04:46;100812.03;;;0.99;100.00
63622;BME280;49770;47.544;19.074;2023-02-03T11:07:48;100812.03;;;1.01;100.00
63622;BME280;49770;47.544;19.074;2023-02-03T11:11:01;100803.34;;;0.89;100.00
63622;BME280;49770;47.544;19.074;2023-02-03T11:17:14;100786.78;;;0.90;100.00
63622;BME280;49770;47.544;19.074;2023-02-03T11:20:17;100779.84;;;0.85;100.00
63622;BME280;49770;47.544;19.074;2023-02-03T11:23:21;100792.94;;;0.71;100.00
63622;BME280;49770;47.544;19.074;2023-02-03T11:26:28;100772.03;;;0.75;100.00
63622;BME280;49770;47.544;19.074;2023-02-03T11:29:35;100770.31;;;0.60;100.00
63622;BME280;49770;47.544;19.074;2023-02-03T11:32:41;100758.19;;;0.56;100.00
63622;BME280;49770;47.544;19.074;2023-02-03T11:35:58;100742.50;;;0.48;100.00
63622;BME280;49770;47.544;19.074;2023-02-03T11:42:22;100722.50;;;0.44;100.00
63622;BME280;49770;47.544;19.074;2023-02-03T11:48:32;100710.34;;;0.38;100.00
63622;BME280;49770;47.544;19.074;2023-02-03T11:51:43;100707.75;;;0.31;100.00
63622;BME280;49770;47.544;19.074;2023-02-03T11:55:07;100696.44;;;0.30;100.00
63622;BME280;49770;47.544;19.074;2023-02-03T12:34:41;100579.03;;;0.18;100.00
63622;BME280;49770;47.544;19.074;2023-02-03T12:41:15;100550.38;;;0.11;100.00
63622;BME280;49770;47.544;19.074;2023-02-03T12:44:26;100544.28;;;0.19;100.00
63622;BME280;49770;47.544;19.074;2023-02-03T12:47:33;100538.16;;;0.18;100.00
63622;BME280;49770;47.544;19.074;2023-02-03T12:50:41;100530.34;;;0.18;100.00
63622;BME280;49770;47.544;19.074;2023-02-03T12:53:52;100520.75;;;0.20;100.00
63622;BME280;49770;47.544;19.074;2023-02-03T12:57:06;100506.84;;;0.23;100.00
63622;BME280;49770;47.544;19.074;2023-02-03T13:10:03;100468.47;;;0.40;100.00
63622;BME280;49770;47.544;19.074;2023-02-03T13:13:11;100465.00;;;0.34;100.00
63622;BME280;49770;47.544;19.074;2023-02-03T13:16:20;100458.91;;;0.41;100.00
63622;BME280;49770;47.544;19.074;2023-02-03T13:19:29;100449.31;;;0.42;100.00
63622;BME280;49770;47.544;19.074;2023-02-03T13:22:38;100444.06;;;0.49;100.00
63622;BME280;49770;47.544;19.074;2023-02-03T13:26:04;100445.69;;;0.64;100.00
63622;BME280;49770;47.544;19.074;2023-02-03T13:42:24;100410.69;;;0.84;100.00
63622;BME280;49770;47.544;19.074;2023-02-03T13:45:37;100389.84;;;0.79;100.00
63622;BME280;49770;47.544;19.074;2023-02-03T13:48:43;100385.41;;;0.86;100.00
63622;BME280;49770;47.544;19.074;2023-02-03T13:51:48;100381.12;;;0.80;100.00
63622;BME280;49770;47.544;19.074;2023-02-03T13:54:51;100384.47;;;0.95;100.00
63622;BME280;49770;47.544;19.074;2023-02-03T13:57:54;100374.78;;;1.05;100.00
63622;BME280;49770;47.544;19.074;2023-02-03T14:01:28;100377.34;;;1.13;100.00
63622;BME280;49770;47.544;19.074;2023-02-03T14:07:38;100363.50;;;1.06;100.00
63622;BME280;49770;47.544;19.074;2023-02-03T14:10:41;100356.38;;;1.17;100.00
63622;BME280;49770;47.544;19.074;2023-02-03T14:13:44;100357.25;;;1.19;100.00
63622;BME280;49770;47.544;19.074;2023-02-03T14:16:50;100357.31;;;1.15;100.00
63622;BME280;49770;47.544;19.074;2023-02-03T14:19:56;100344.25;;;1.12;100.00
63622;BME280;49770;47.544;19.074;2023-02-03T14:23:10;100343.22;;;1.28;100.00
63622;BME280;49770;47.544;19.074;2023-02-03T14:26:27;100337.88;;;1.36;100.00
